sensor_id;sensor_type;location;lat;lon;timestamp;P1;durP1;ratioP1;P2;durP2;ratioP2
8100;SDS011;4093;53.470;9.832;2024-01-25T00:01:35;43.33;;;8.03;;
8100;SDS011;4093;53.470;9.832;2024-01-25T00:04:03;42.50;;;8.00;;
8100;SDS011;4093;53.470;9.832;2024-01-25T00:06:31;35.23;;;8.90;;
8100;SDS011;4093;53.470;9.832;2024-01-25T00:08:59;37.10;;;8.27;;
8100;SDS011;4093;53.470;9.832;2024-01-25T00:11:27;35.00;;;9.70;;
8100;SDS011;4093;53.470;9.832;2024-01-25T00:13:59;31.97;;;7.73;;
8100;SDS011;4093;53.470;9.832;2024-01-25T00:16:26;38.53;;;8.33;;
8100;SDS011;4093;53.470;9.832;2024-01-25T00:18:54;32.47;;;7.40;;
8100;SDS011;4093;53.470;9.832;2024-01-25T00:21:22;35.67;;;8.67;;
8100;SDS011;4093;53.470;9.832;2024-01-25T00:23:50;34.50;;;8.37;;
8100;SDS011;4093;53.470;9.832;2024-01-25T00:26:17;28.80;;;7.10;;
8100;SDS011;4093;53.470;9.832;2024-01-25T00:28:45;33.00;;;8.03;;
8100;SDS011;4093;53.470;9.832;2024-01-25T00:31:14;33.33;;;8.73;;
8100;SDS011;4093;53.470;9.832;2024-01-25T00:33:42;36.37;;;7.90;;
8100;SDS011;4093;53.470;9.832;2024-01-25T00:36:11;40.63;;;7.97;;
8100;SDS011;4093;53.470;9.832;2024-01-25T00:38:39;29.47;;;7.10;;
8100;SDS011;4093;53.470;9.832;2024-01-25T00:41:08;35.57;;;7.47;;
8100;SDS011;4093;53.470;9.832;2024-01-25T00:43:37;30.73;;;6.67;;
8100;SDS011;4093;53.470;9.832;2024-01-25T00:46:05;37.63;;;8.63;;
8100;SDS011;4093;53.470;9.832;2024-01-25T00:48:35;30.90;;;8.03;;
8100;SDS011;4093;53.470;9.832;2024-01-25T00:51:04;36.13;;;7.23;;
8100;SDS011;4093;53.470;9.832;2024-01-25T00:53:35;35.53;;;8.03;;
8100;SDS011;4093;53.470;9.832;2024-01-25T00:56:03;34.43;;;7.13;;
8100;SDS011;4093;53.470;9.832;2024-01-25T00:58:32;31.83;;;7.50;;
8100;SDS011;4093;53.470;9.832;2024-01-25T01:01:00;36.00;;;8.17;;
8100;SDS011;4093;53.470;9.832;2024-01-25T01:03:28;33.47;;;8.03;;
8100;SDS011;4093;53.470;9.832;2024-01-25T01:05:59;36.83;;;7.93;;
8100;SDS011;4093;53.470;9.832;2024-01-25T01:08:27;32.33;;;8.17;;
8100;SDS011;4093;53.470;9.832;2024-01-25T01:10:55;38.23;;;7.83;;
8100;SDS011;4093;53.470;9.832;2024-01-25T01:13:23;39.57;;;6.97;;
8100;SDS011;4093;53.470;9.832;2024-01-25T01:15:51;45.23;;;8.90;;
8100;SDS011;4093;53.470;9.832;2024-01-25T01:18:19;30.03;;;7.90;;
8100;SDS011;4093;53.470;9.832;2024-01-25T01:20:47;33.63;;;8.70;;
8100;SDS011;4093;53.470;9.832;2024-01-25T01:23:16;29.70;;;7.30;;
8100;SDS011;4093;53.470;9.832;2024-01-25T01:25:44;28.17;;;7.70;;
8100;SDS011;4093;53.470;9.832;2024-01-25T01:28:12;36.13;;;7.87;;
8100;SDS011;4093;53.470;9.832;2024-01-25T01:30:39;42.50;;;8.57;;
8100;SDS011;4093;53.470;9.832;2024-01-25T01:33:08;35.07;;;7.07;;
8100;SDS011;4093;53.470;9.832;2024-01-25T01:35:36;42.73;;;7.03;;
8100;SDS011;4093;53.470;9.832;2024-01-25T01:38:04;37.23;;;8.20;;
8100;SDS011;4093;53.470;9.832;2024-01-25T01:40:33;33.43;;;8.03;;
8100;SDS011;4093;53.470;9.832;2024-01-25T01:43:01;31.17;;;7.20;;
8100;SDS011;4093;53.470;9.832;2024-01-25T01:45:29;40.40;;;8.07;;
8100;SDS011;4093;53.470;9.832;2024-01-25T01:47:57;37.93;;;7.50;;
8100;SDS011;4093;53.470;9.832;2024-01-25T01:50:27;28.67;;;7.87;;
8100;SDS011;4093;53.470;9.832;2024-01-25T01:52:55;38.17;;;8.20;;
8100;SDS011;4093;53.470;9.832;2024-01-25T01:55:22;31.73;;;7.60;;
8100;SDS011;4093;53.470;9.832;2024-01-25T01:57:52;36.93;;;7.30;;
8100;SDS011;4093;53.470;9.832;2024-01-25T02:00:19;34.33;;;7.57;;
8100;SDS011;4093;53.470;9.832;2024-01-25T02:02:48;40.30;;;8.90;;
8100;SDS011;4093;53.470;9.832;2024-01-25T02:05:17;37.97;;;8.17;;
8100;SDS011;4093;53.470;9.832;2024-01-25T02:07:44;33.23;;;8.47;;
8100;SDS011;4093;53.470;9.832;2024-01-25T02:10:12;33.60;;;7.77;;
8100;SDS011;4093;53.470;9.832;2024-01-25T02:12:40;36.43;;;7.43;;
8100;SDS011;4093;53.470;9.832;2024-01-25T02:15:09;43.80;;;7.47;;
8100;SDS011;4093;53.470;9.832;2024-01-25T02:17:37;33.97;;;8.73;;
8100;SDS011;4093;53.470;9.832;2024-01-25T02:20:06;33.50;;;8.63;;
8100;SDS011;4093;53.470;9.832;2024-01-25T02:22:36;36.00;;;8.47;;
8100;SDS011;4093;53.470;9.832;2024-01-25T02:25:05;32.03;;;8.30;;
8100;SDS011;4093;53.470;9.832;2024-01-25T02:27:33;48.00;;;8.93;;
8100;SDS011;4093;53.470;9.832;2024-01-25T02:30:05;36.83;;;7.30;;
8100;SDS011;4093;53.470;9.832;2024-01-25T02:32:34;38.53;;;8.67;;
8100;SDS011;4093;53.470;9.832;2024-01-25T02:35:01;30.30;;;7.87;;
8100;SDS011;4093;53.470;9.832;2024-01-25T02:37:29;39.50;;;8.63;;
8100;SDS011;4093;53.470;9.832;2024-01-25T02:39:58;40.33;;;7.73;;
8100;SDS011;4093;53.470;9.832;2024-01-25T02:42:26;37.17;;;7.83;;
8100;SDS011;4093;53.470;9.832;2024-01-25T02:44:54;40.03;;;7.97;;
8100;SDS011;4093;53.470;9.832;2024-01-25T02:47:22;35.57;;;7.50;;
8100;SDS011;4093;53.470;9.832;2024-01-25T02:49:49;37.27;;;7.70;;
8100;SDS011;4093;53.470;9.832;2024-01-25T02:52:17;30.10;;;6.50;;
8100;SDS011;4093;53.470;9.832;2024-01-25T02:54:45;33.63;;;7.50;;
8100;SDS011;4093;53.470;9.832;2024-01-25T02:57:14;39.13;;;7.97;;
8100;SDS011;4093;53.470;9.832;2024-01-25T02:59:42;35.27;;;7.77;;
8100;SDS011;4093;53.470;9.832;2024-01-25T03:02:10;38.60;;;8.37;;
8100;SDS011;4093;53.470;9.832;2024-01-25T03:04:38;31.20;;;7.70;;
8100;SDS011;4093;53.470;9.832;2024-01-25T03:07:06;35.70;;;7.60;;
8100;SDS011;4093;53.470;9.832;2024-01-25T03:09:34;40.93;;;7.93;;
8100;SDS011;4093;53.470;9.832;2024-01-25T03:12:01;40.17;;;8.47;;
8100;SDS011;4093;53.470;9.832;2024-01-25T03:14:30;38.47;;;7.47;;
8100;SDS011;4093;53.470;9.832;2024-01-25T03:16:58;36.00;;;7.67;;
8100;SDS011;4093;53.470;9.832;2024-01-25T03:19:26;40.13;;;8.80;;
8100;SDS011;4093;53.470;9.832;2024-01-25T03:21:54;31.80;;;7.37;;
8100;SDS011;4093;53.470;9.832;2024-01-25T03:24:22;31.87;;;8.27;;
8100;SDS011;4093;53.470;9.832;2024-01-25T03:26:50;42.30;;;8.70;;
8100;SDS011;4093;53.470;9.832;2024-01-25T03:29:18;43.33;;;8.13;;
8100;SDS011;4093;53.470;9.832;2024-01-25T03:31:47;34.47;;;8.43;;
8100;SDS011;4093;53.470;9.832;2024-01-25T03:34:16;39.93;;;7.67;;
8100;SDS011;4093;53.470;9.832;2024-01-25T03:36:44;34.47;;;8.37;;
8100;SDS011;4093;53.470;9.832;2024-01-25T03:39:12;29.93;;;7.47;;
8100;SDS011;4093;53.470;9.832;2024-01-25T03:41:40;36.33;;;8.50;;
8100;SDS011;4093;53.470;9.832;2024-01-25T03:44:07;39.80;;;7.43;;
8100;SDS011;4093;53.470;9.832;2024-01-25T03:46:35;37.87;;;8.27;;
8100;SDS011;4093;53.470;9.832;2024-01-25T03:49:04;37.60;;;7.80;;
8100;SDS011;4093;53.470;9.832;2024-01-25T03:51:32;37.30;;;9.00;;
8100;SDS011;4093;53.470;9.832;2024-01-25T03:54:00;39.33;;;7.83;;
8100;SDS011;4093;53.470;9.832;2024-01-25T03:56:27;24.57;;;6.73;;
8100;SDS011;4093;53.470;9.832;2024-01-25T03:58:55;39.67;;;7.73;;
8100;SDS011;4093;53.470;9.832;2024-01-25T04:01:23;34.83;;;7.67;;
8100;SDS011;4093;53.470;9.832;2024-01-25T04:03:55;30.37;;;8.07;;
8100;SDS011;4093;53.470;9.832;2024-01-25T04:06:25;36.93;;;7.27;;
8100;SDS011;4093;53.470;9.832;2024-01-25T04:08:52;30.40;;;7.90;;
8100;SDS011;4093;53.470;9.832;2024-01-25T04:11:20;28.20;;;7.13;;
8100;SDS011;4093;53.470;9.832;2024-01-25T04:13:50;35.30;;;7.77;;
8100;SDS011;4093;53.470;9.832;2024-01-25T04:16:18;37.77;;;7.90;;
8100;SDS011;4093;53.470;9.832;2024-01-25T04:18:46;36.67;;;7.30;;
8100;SDS011;4093;53.470;9.832;2024-01-25T04:21:15;44.57;;;7.97;;
8100;SDS011;4093;53.470;9.832;2024-01-25T04:23:44;34.80;;;8.70;;
8100;SDS011;4093;53.470;9.832;2024-01-25T04:26:11;40.63;;;7.50;;
8100;SDS011;4093;53.470;9.832;2024-01-25T04:28:39;41.87;;;7.77;;
8100;SDS011;4093;53.470;9.832;2024-01-25T04:31:07;27.27;;;7.40;;
8100;SDS011;4093;53.470;9.832;2024-01-25T04:33:34;36.87;;;7.57;;
8100;SDS011;4093;53.470;9.832;2024-01-25T04:36:03;32.30;;;8.07;;
8100;SDS011;4093;53.470;9.832;2024-01-25T04:38:31;35.03;;;7.10;;
8100;SDS011;4093;53.470;9.832;2024-01-25T04:41:00;32.03;;;7.23;;
8100;SDS011;4093;53.470;9.832;2024-01-25T04:43:28;30.87;;;7.47;;
8100;SDS011;4093;53.470;9.832;2024-01-25T04:46:00;27.47;;;6.73;;
8100;SDS011;4093;53.470;9.832;2024-01-25T04:48:29;30.40;;;7.10;;
8100;SDS011;4093;53.470;9.832;2024-01-25T04:50:57;33.73;;;7.00;;
8100;SDS011;4093;53.470;9.832;2024-01-25T04:53:25;39.30;;;7.47;;
8100;SDS011;4093;53.470;9.832;2024-01-25T04:55:54;29.67;;;6.80;;
8100;SDS011;4093;53.470;9.832;2024-01-25T04:58:24;38.77;;;6.60;;
8100;SDS011;4093;53.470;9.832;2024-01-25T05:00:52;26.03;;;7.47;;
8100;SDS011;4093;53.470;9.832;2024-01-25T05:03:21;36.73;;;7.53;;
8100;SDS011;4093;53.470;9.832;2024-01-25T05:05:49;34.13;;;7.40;;
8100;SDS011;4093;53.470;9.832;2024-01-25T05:08:17;42.63;;;7.83;;
8100;SDS011;4093;53.470;9.832;2024-01-25T05:10:44;36.13;;;8.37;;
8100;SDS011;4093;53.470;9.832;2024-01-25T05:13:11;29.43;;;7.00;;
8100;SDS011;4093;53.470;9.832;2024-01-25T05:15:41;43.87;;;7.23;;
8100;SDS011;4093;53.470;9.832;2024-01-25T05:18:08;41.17;;;7.10;;
8100;SDS011;4093;53.470;9.832;2024-01-25T05:20:36;33.87;;;7.13;;
8100;SDS011;4093;53.470;9.832;2024-01-25T05:23:04;33.60;;;7.70;;
8100;SDS011;4093;53.470;9.832;2024-01-25T05:25:32;40.23;;;8.00;;
8100;SDS011;4093;53.470;9.832;2024-01-25T05:28:00;38.57;;;8.13;;
8100;SDS011;4093;53.470;9.832;2024-01-25T05:30:28;33.77;;;7.80;;
8100;SDS011;4093;53.470;9.832;2024-01-25T05:32:57;37.50;;;8.80;;
8100;SDS011;4093;53.470;9.832;2024-01-25T05:35:26;38.00;;;7.20;;
8100;SDS011;4093;53.470;9.832;2024-01-25T05:37:54;33.33;;;7.17;;
8100;SDS011;4093;53.470;9.832;2024-01-25T05:40:21;30.07;;;7.40;;
8100;SDS011;4093;53.470;9.832;2024-01-25T05:42:49;23.40;;;6.37;;
8100;SDS011;4093;53.470;9.832;2024-01-25T05:45:17;35.50;;;7.67;;
8100;SDS011;4093;53.470;9.832;2024-01-25T05:47:47;34.10;;;7.17;;
8100;SDS011;4093;53.470;9.832;2024-01-25T05:50:17;38.73;;;7.43;;
8100;SDS011;4093;53.470;9.832;2024-01-25T05:52:45;42.13;;;8.70;;
8100;SDS011;4093;53.470;9.832;2024-01-25T05:55:13;37.10;;;7.10;;
8100;SDS011;4093;53.470;9.832;2024-01-25T05:57:42;31.40;;;7.40;;
8100;SDS011;4093;53.470;9.832;2024-01-25T06:00:11;26.43;;;6.03;;
8100;SDS011;4093;53.470;9.832;2024-01-25T06:02:45;37.57;;;8.13;;
8100;SDS011;4093;53.470;9.832;2024-01-25T06:05:13;31.40;;;6.23;;
8100;SDS011;4093;53.470;9.832;2024-01-25T06:07:42;41.80;;;8.30;;
8100;SDS011;4093;53.470;9.832;2024-01-25T06:10:10;37.93;;;7.67;;
8100;SDS011;4093;53.470;9.832;2024-01-25T06:12:39;25.67;;;7.60;;
8100;SDS011;4093;53.470;9.832;2024-01-25T06:15:07;43.23;;;7.83;;
8100;SDS011;4093;53.470;9.832;2024-01-25T06:17:35;30.23;;;7.20;;
8100;SDS011;4093;53.470;9.832;2024-01-25T06:20:04;29.63;;;7.23;;
8100;SDS011;4093;53.470;9.832;2024-01-25T06:22:32;37.00;;;6.70;;
8100;SDS011;4093;53.470;9.832;2024-01-25T06:25:01;37.13;;;6.70;;
8100;SDS011;4093;53.470;9.832;2024-01-25T06:27:32;36.17;;;8.00;;
8100;SDS011;4093;53.470;9.832;2024-01-25T06:30:01;42.67;;;7.90;;
8100;SDS011;4093;53.470;9.832;2024-01-25T06:32:28;34.07;;;7.97;;
8100;SDS011;4093;53.470;9.832;2024-01-25T06:34:56;40.70;;;7.87;;
8100;SDS011;4093;53.470;9.832;2024-01-25T06:37:24;31.93;;;6.63;;
8100;SDS011;4093;53.470;9.832;2024-01-25T06:39:52;38.33;;;8.07;;
8100;SDS011;4093;53.470;9.832;2024-01-25T06:42:21;26.27;;;6.53;;
8100;SDS011;4093;53.470;9.832;2024-01-25T06:44:49;32.87;;;6.97;;
8100;SDS011;4093;53.470;9.832;2024-01-25T06:47:16;30.10;;;8.17;;
8100;SDS011;4093;53.470;9.832;2024-01-25T06:49:47;33.40;;;6.80;;
8100;SDS011;4093;53.470;9.832;2024-01-25T06:52:18;31.93;;;6.83;;
8100;SDS011;4093;53.470;9.832;2024-01-25T06:54:46;27.17;;;6.63;;
8100;SDS011;4093;53.470;9.832;2024-01-25T06:57:13;39.73;;;7.63;;
8100;SDS011;4093;53.470;9.832;2024-01-25T06:59:42;39.40;;;7.80;;
8100;SDS011;4093;53.470;9.832;2024-01-25T07:02:11;33.50;;;8.10;;
8100;SDS011;4093;53.470;9.832;2024-01-25T07:04:39;34.70;;;7.07;;
8100;SDS011;4093;53.470;9.832;2024-01-25T07:07:08;36.90;;;7.93;;
8100;SDS011;4093;53.470;9.832;2024-01-25T07:09:36;40.50;;;7.43;;
8100;SDS011;4093;53.470;9.832;2024-01-25T07:12:04;41.40;;;7.30;;
8100;SDS011;4093;53.470;9.832;2024-01-25T07:14:32;30.60;;;7.27;;
8100;SDS011;4093;53.470;9.832;2024-01-25T07:17:01;43.00;;;7.07;;
8100;SDS011;4093;53.470;9.832;2024-01-25T07:19:30;40.60;;;8.07;;
8100;SDS011;4093;53.470;9.832;2024-01-25T07:21:57;34.33;;;6.83;;
8100;SDS011;4093;53.470;9.832;2024-01-25T07:24:25;37.37;;;7.53;;
8100;SDS011;4093;53.470;9.832;2024-01-25T07:26:53;31.27;;;6.70;;
8100;SDS011;4093;53.470;9.832;2024-01-25T07:29:22;40.73;;;7.30;;
8100;SDS011;4093;53.470;9.832;2024-01-25T07:31:50;39.33;;;7.40;;
8100;SDS011;4093;53.470;9.832;2024-01-25T07:34:19;38.90;;;7.23;;
8100;SDS011;4093;53.470;9.832;2024-01-25T07:36:47;32.30;;;7.70;;
8100;SDS011;4093;53.470;9.832;2024-01-25T07:39:15;42.03;;;8.17;;
8100;SDS011;4093;53.470;9.832;2024-01-25T07:41:42;33.73;;;7.27;;
8100;SDS011;4093;53.470;9.832;2024-01-25T07:44:10;33.30;;;7.23;;
8100;SDS011;4093;53.470;9.832;2024-01-25T07:46:39;34.97;;;6.63;;
8100;SDS011;4093;53.470;9.832;2024-01-25T07:49:07;31.40;;;6.67;;
8100;SDS011;4093;53.470;9.832;2024-01-25T07:51:35;32.90;;;6.87;;
8100;SDS011;4093;53.470;9.832;2024-01-25T07:54:03;29.77;;;6.83;;
8100;SDS011;4093;53.470;9.832;2024-01-25T07:56:31;28.83;;;6.83;;
8100;SDS011;4093;53.470;9.832;2024-01-25T07:58:58;33.40;;;7.00;;
8100;SDS011;4093;53.470;9.832;2024-01-25T08:01:27;32.87;;;7.50;;
8100;SDS011;4093;53.470;9.832;2024-01-25T08:03:55;32.80;;;6.67;;
8100;SDS011;4093;53.470;9.832;2024-01-25T08:06:23;35.30;;;7.10;;
8100;SDS011;4093;53.470;9.832;2024-01-25T08:08:52;33.97;;;7.13;;
8100;SDS011;4093;53.470;9.832;2024-01-25T08:11:20;34.80;;;7.57;;
8100;SDS011;4093;53.470;9.832;2024-01-25T08:13:49;33.40;;;6.47;;
8100;SDS011;4093;53.470;9.832;2024-01-25T08:16:17;27.40;;;6.53;;
8100;SDS011;4093;53.470;9.832;2024-01-25T08:18:46;28.87;;;7.43;;
8100;SDS011;4093;53.470;9.832;2024-01-25T08:21:14;32.43;;;6.23;;
8100;SDS011;4093;53.470;9.832;2024-01-25T08:23:42;36.27;;;7.07;;
8100;SDS011;4093;53.470;9.832;2024-01-25T08:26:11;26.20;;;6.37;;
8100;SDS011;4093;53.470;9.832;2024-01-25T08:28:40;35.63;;;7.03;;
8100;SDS011;4093;53.470;9.832;2024-01-25T08:31:09;25.77;;;6.37;;
8100;SDS011;4093;53.470;9.832;2024-01-25T08:33:38;25.40;;;6.23;;
8100;SDS011;4093;53.470;9.832;2024-01-25T08:36:08;34.40;;;7.20;;
8100;SDS011;4093;53.470;9.832;2024-01-25T08:38:36;36.33;;;7.03;;
8100;SDS011;4093;53.470;9.832;2024-01-25T08:41:03;31.50;;;7.00;;
8100;SDS011;4093;53.470;9.832;2024-01-25T08:43:33;26.37;;;6.83;;
8100;SDS011;4093;53.470;9.832;2024-01-25T08:46:01;29.70;;;6.50;;
8100;SDS011;4093;53.470;9.832;2024-01-25T08:48:29;33.60;;;6.87;;
8100;SDS011;4093;53.470;9.832;2024-01-25T08:50:57;30.83;;;7.03;;
8100;SDS011;4093;53.470;9.832;2024-01-25T08:53:25;27.57;;;7.40;;
8100;SDS011;4093;53.470;9.832;2024-01-25T08:55:54;29.73;;;7.17;;
8100;SDS011;4093;53.470;9.832;2024-01-25T08:58:22;29.53;;;6.43;;
8100;SDS011;4093;53.470;9.832;2024-01-25T09:00:51;35.73;;;6.80;;
8100;SDS011;4093;53.470;9.832;2024-01-25T09:03:19;31.00;;;6.20;;
8100;SDS011;4093;53.470;9.832;2024-01-25T09:05:47;34.20;;;7.73;;
8100;SDS011;4093;53.470;9.832;2024-01-25T09:08:15;29.30;;;6.53;;
8100;SDS011;4093;53.470;9.832;2024-01-25T09:10:43;26.03;;;6.83;;
8100;SDS011;4093;53.470;9.832;2024-01-25T09:13:11;35.53;;;6.83;;
8100;SDS011;4093;53.470;9.832;2024-01-25T09:15:39;29.73;;;7.23;;
8100;SDS011;4093;53.470;9.832;2024-01-25T09:18:08;28.77;;;7.23;;
8100;SDS011;4093;53.470;9.832;2024-01-25T09:20:36;32.17;;;6.97;;
8100;SDS011;4093;53.470;9.832;2024-01-25T09:23:04;27.23;;;6.20;;
8100;SDS011;4093;53.470;9.832;2024-01-25T09:25:31;38.47;;;8.43;;
8100;SDS011;4093;53.470;9.832;2024-01-25T09:28:00;29.97;;;6.73;;
8100;SDS011;4093;53.470;9.832;2024-01-25T09:30:28;27.87;;;6.87;;
8100;SDS011;4093;53.470;9.832;2024-01-25T09:32:56;32.13;;;6.70;;
8100;SDS011;4093;53.470;9.832;2024-01-25T09:35:25;31.73;;;7.53;;
8100;SDS011;4093;53.470;9.832;2024-01-25T09:37:53;28.13;;;6.60;;
8100;SDS011;4093;53.470;9.832;2024-01-25T09:40:21;30.33;;;5.83;;
8100;SDS011;4093;53.470;9.832;2024-01-25T09:42:49;25.50;;;6.13;;
8100;SDS011;4093;53.470;9.832;2024-01-25T09:45:20;31.97;;;6.77;;
8100;SDS011;4093;53.470;9.832;2024-01-25T09:47:48;28.97;;;6.07;;
8100;SDS011;4093;53.470;9.832;2024-01-25T09:50:17;35.77;;;6.00;;
8100;SDS011;4093;53.470;9.832;2024-01-25T09:52:49;31.90;;;6.53;;
8100;SDS011;4093;53.470;9.832;2024-01-25T09:55:21;31.33;;;5.93;;
8100;SDS011;4093;53.470;9.832;2024-01-25T09:57:53;28.03;;;6.17;;
8100;SDS011;4093;53.470;9.832;2024-01-25T10:00:22;26.77;;;5.73;;
8100;SDS011;4093;53.470;9.832;2024-01-25T10:02:50;27.00;;;5.90;;
8100;SDS011;4093;53.470;9.832;2024-01-25T10:05:18;33.97;;;7.07;;
8100;SDS011;4093;53.470;9.832;2024-01-25T10:07:47;30.47;;;6.17;;
8100;SDS011;4093;53.470;9.832;2024-01-25T10:10:15;37.50;;;7.73;;
8100;SDS011;4093;53.470;9.832;2024-01-25T10:12:43;25.20;;;6.93;;
8100;SDS011;4093;53.470;9.832;2024-01-25T10:15:11;22.63;;;5.93;;
8100;SDS011;4093;53.470;9.832;2024-01-25T10:17:39;30.20;;;6.10;;
8100;SDS011;4093;53.470;9.832;2024-01-25T10:20:10;26.37;;;5.80;;
8100;SDS011;4093;53.470;9.832;2024-01-25T10:22:42;24.50;;;6.77;;
8100;SDS011;4093;53.470;9.832;2024-01-25T10:25:13;33.50;;;6.63;;
8100;SDS011;4093;53.470;9.832;2024-01-25T10:27:42;20.10;;;5.13;;
8100;SDS011;4093;53.470;9.832;2024-01-25T10:30:11;26.70;;;5.70;;
8100;SDS011;4093;53.470;9.832;2024-01-25T10:32:41;28.53;;;6.20;;
8100;SDS011;4093;53.470;9.832;2024-01-25T10:35:10;28.13;;;5.93;;
8100;SDS011;4093;53.470;9.832;2024-01-25T10:37:40;25.23;;;6.23;;
8100;SDS011;4093;53.470;9.832;2024-01-25T10:40:09;27.43;;;6.00;;
8100;SDS011;4093;53.470;9.832;2024-01-25T10:42:39;22.10;;;5.80;;
8100;SDS011;4093;53.470;9.832;2024-01-25T10:45:07;31.30;;;6.27;;
8100;SDS011;4093;53.470;9.832;2024-01-25T10:47:36;31.97;;;6.27;;
8100;SDS011;4093;53.470;9.832;2024-01-25T10:50:07;28.40;;;6.57;;
8100;SDS011;4093;53.470;9.832;2024-01-25T10:52:36;27.70;;;6.53;;
8100;SDS011;4093;53.470;9.832;2024-01-25T10:55:06;31.03;;;6.33;;
8100;SDS011;4093;53.470;9.832;2024-01-25T10:57:35;26.47;;;5.63;;
8100;SDS011;4093;53.470;9.832;2024-01-25T11:00:07;35.40;;;6.33;;
8100;SDS011;4093;53.470;9.832;2024-01-25T11:02:38;23.97;;;6.50;;
8100;SDS011;4093;53.470;9.832;2024-01-25T11:05:08;25.33;;;6.27;;
8100;SDS011;4093;53.470;9.832;2024-01-25T11:07:40;27.47;;;6.33;;
8100;SDS011;4093;53.470;9.832;2024-01-25T11:10:13;31.10;;;6.27;;
8100;SDS011;4093;53.470;9.832;2024-01-25T11:12:46;28.00;;;7.70;;
8100;SDS011;4093;53.470;9.832;2024-01-25T11:15:24;24.87;;;6.27;;
8100;SDS011;4093;53.470;9.832;2024-01-25T11:17:58;23.30;;;6.07;;
8100;SDS011;4093;53.470;9.832;2024-01-25T11:20:28;30.07;;;6.40;;
8100;SDS011;4093;53.470;9.832;2024-01-25T11:22:58;28.70;;;6.50;;
8100;SDS011;4093;53.470;9.832;2024-01-25T11:25:26;32.20;;;6.63;;
8100;SDS011;4093;53.470;9.832;2024-01-25T11:27:55;31.37;;;6.90;;
8100;SDS011;4093;53.470;9.832;2024-01-25T11:30:24;26.80;;;6.43;;
8100;SDS011;4093;53.470;9.832;2024-01-25T11:32:52;28.70;;;5.90;;
8100;SDS011;4093;53.470;9.832;2024-01-25T11:35:20;24.20;;;6.23;;
8100;SDS011;4093;53.470;9.832;2024-01-25T11:37:52;28.43;;;6.80;;
8100;SDS011;4093;53.470;9.832;2024-01-25T11:40:20;24.70;;;6.93;;
8100;SDS011;4093;53.470;9.832;2024-01-25T11:42:48;29.13;;;6.07;;
8100;SDS011;4093;53.470;9.832;2024-01-25T11:45:17;25.50;;;6.63;;
8100;SDS011;4093;53.470;9.832;2024-01-25T11:47:46;23.73;;;5.67;;
8100;SDS011;4093;53.470;9.832;2024-01-25T11:50:14;22.10;;;5.40;;
8100;SDS011;4093;53.470;9.832;2024-01-25T11:52:42;26.60;;;6.10;;
8100;SDS011;4093;53.470;9.832;2024-01-25T11:55:10;27.93;;;5.67;;
8100;SDS011;4093;53.470;9.832;2024-01-25T11:57:39;27.70;;;6.50;;
8100;SDS011;4093;53.470;9.832;2024-01-25T12:00:08;21.27;;;5.47;;
8100;SDS011;4093;53.470;9.832;2024-01-25T12:02:39;28.50;;;6.37;;
8100;SDS011;4093;53.470;9.832;2024-01-25T12:05:09;25.27;;;5.90;;
8100;SDS011;4093;53.470;9.832;2024-01-25T12:07:47;23.50;;;6.03;;
8100;SDS011;4093;53.470;9.832;2024-01-25T12:10:15;31.37;;;6.17;;
8100;SDS011;4093;53.470;9.832;2024-01-25T12:12:44;26.97;;;7.10;;
8100;SDS011;4093;53.470;9.832;2024-01-25T12:15:12;22.60;;;5.73;;
8100;SDS011;4093;53.470;9.832;2024-01-25T12:17:39;28.93;;;7.00;;
8100;SDS011;4093;53.470;9.832;2024-01-25T12:20:08;21.47;;;5.77;;
8100;SDS011;4093;53.470;9.832;2024-01-25T12:22:39;24.23;;;5.67;;
8100;SDS011;4093;53.470;9.832;2024-01-25T12:25:09;26.90;;;7.03;;
8100;SDS011;4093;53.470;9.832;2024-01-25T12:27:39;23.67;;;5.90;;
8100;SDS011;4093;53.470;9.832;2024-01-25T12:30:08;29.33;;;6.67;;
8100;SDS011;4093;53.470;9.832;2024-01-25T12:32:37;24.03;;;6.00;;
8100;SDS011;4093;53.470;9.832;2024-01-25T12:35:05;21.87;;;5.40;;
8100;SDS011;4093;53.470;9.832;2024-01-25T12:37:34;17.07;;;4.73;;
8100;SDS011;4093;53.470;9.832;2024-01-25T12:40:03;30.53;;;5.60;;
8100;SDS011;4093;53.470;9.832;2024-01-25T12:42:33;33.70;;;6.47;;
8100;SDS011;4093;53.470;9.832;2024-01-25T12:45:01;24.93;;;5.90;;
8100;SDS011;4093;53.470;9.832;2024-01-25T12:47:29;22.67;;;5.83;;
8100;SDS011;4093;53.470;9.832;2024-01-25T12:49:57;29.60;;;6.07;;
8100;SDS011;4093;53.470;9.832;2024-01-25T12:52:27;22.67;;;5.43;;
8100;SDS011;4093;53.470;9.832;2024-01-25T12:54:55;22.47;;;6.63;;
8100;SDS011;4093;53.470;9.832;2024-01-25T12:57:23;21.93;;;6.00;;
8100;SDS011;4093;53.470;9.832;2024-01-25T12:59:53;25.57;;;5.77;;
8100;SDS011;4093;53.470;9.832;2024-01-25T13:02:21;27.67;;;5.97;;
8100;SDS011;4093;53.470;9.832;2024-01-25T13:04:49;25.17;;;5.87;;
8100;SDS011;4093;53.470;9.832;2024-01-25T13:07:19;20.50;;;6.63;;
8100;SDS011;4093;53.470;9.832;2024-01-25T13:09:47;22.93;;;5.30;;
8100;SDS011;4093;53.470;9.832;2024-01-25T13:12:15;24.17;;;5.10;;
8100;SDS011;4093;53.470;9.832;2024-01-25T13:14:44;17.47;;;5.63;;
8100;SDS011;4093;53.470;9.832;2024-01-25T13:17:13;18.50;;;5.83;;
8100;SDS011;4093;53.470;9.832;2024-01-25T13:19:41;22.27;;;5.83;;
8100;SDS011;4093;53.470;9.832;2024-01-25T13:22:08;19.73;;;5.30;;
8100;SDS011;4093;53.470;9.832;2024-01-25T13:24:36;15.47;;;5.00;;
8100;SDS011;4093;53.470;9.832;2024-01-25T13:27:04;19.90;;;4.57;;
8100;SDS011;4093;53.470;9.832;2024-01-25T13:29:32;20.97;;;4.93;;
8100;SDS011;4093;53.470;9.832;2024-01-25T13:32:00;23.27;;;5.47;;
8100;SDS011;4093;53.470;9.832;2024-01-25T13:34:29;21.37;;;5.43;;
8100;SDS011;4093;53.470;9.832;2024-01-25T13:36:57;22.07;;;4.70;;
8100;SDS011;4093;53.470;9.832;2024-01-25T13:39:25;21.17;;;4.73;;
8100;SDS011;4093;53.470;9.832;2024-01-25T13:41:53;18.97;;;4.97;;
8100;SDS011;4093;53.470;9.832;2024-01-25T13:44:21;19.13;;;5.17;;
8100;SDS011;4093;53.470;9.832;2024-01-25T13:46:48;19.63;;;4.93;;
8100;SDS011;4093;53.470;9.832;2024-01-25T13:49:17;16.97;;;4.33;;
8100;SDS011;4093;53.470;9.832;2024-01-25T13:51:46;19.50;;;5.30;;
8100;SDS011;4093;53.470;9.832;2024-01-25T13:54:14;17.70;;;5.80;;
8100;SDS011;4093;53.470;9.832;2024-01-25T13:56:42;17.90;;;4.57;;
8100;SDS011;4093;53.470;9.832;2024-01-25T13:59:10;19.17;;;5.07;;
8100;SDS011;4093;53.470;9.832;2024-01-25T14:01:37;20.70;;;5.23;;
8100;SDS011;4093;53.470;9.832;2024-01-25T14:04:05;19.37;;;4.97;;
8100;SDS011;4093;53.470;9.832;2024-01-25T14:06:34;17.90;;;5.07;;
8100;SDS011;4093;53.470;9.832;2024-01-25T14:09:03;14.57;;;4.30;;
8100;SDS011;4093;53.470;9.832;2024-01-25T14:11:31;27.30;;;6.10;;
8100;SDS011;4093;53.470;9.832;2024-01-25T14:13:59;19.50;;;5.13;;
8100;SDS011;4093;53.470;9.832;2024-01-25T14:16:27;20.53;;;4.80;;
8100;SDS011;4093;53.470;9.832;2024-01-25T14:18:54;19.23;;;4.93;;
8100;SDS011;4093;53.470;9.832;2024-01-25T14:21:23;21.97;;;5.10;;
8100;SDS011;4093;53.470;9.832;2024-01-25T14:23:51;21.10;;;5.10;;
8100;SDS011;4093;53.470;9.832;2024-01-25T14:26:21;19.13;;;4.90;;
8100;SDS011;4093;53.470;9.832;2024-01-25T14:28:49;21.40;;;5.23;;
8100;SDS011;4093;53.470;9.832;2024-01-25T14:31:17;20.83;;;5.50;;
8100;SDS011;4093;53.470;9.832;2024-01-25T14:33:45;20.60;;;5.80;;
8100;SDS011;4093;53.470;9.832;2024-01-25T14:36:13;17.17;;;5.23;;
8100;SDS011;4093;53.470;9.832;2024-01-25T14:38:41;15.53;;;4.70;;
8100;SDS011;4093;53.470;9.832;2024-01-25T14:41:09;21.47;;;5.00;;
8100;SDS011;4093;53.470;9.832;2024-01-25T14:43:38;19.57;;;5.60;;
8100;SDS011;4093;53.470;9.832;2024-01-25T14:46:06;19.30;;;5.53;;
8100;SDS011;4093;53.470;9.832;2024-01-25T14:48:34;21.63;;;5.57;;
8100;SDS011;4093;53.470;9.832;2024-01-25T14:51:02;18.40;;;5.53;;
8100;SDS011;4093;53.470;9.832;2024-01-25T14:53:30;13.80;;;4.90;;
8100;SDS011;4093;53.470;9.832;2024-01-25T14:55:58;22.70;;;6.23;;
8100;SDS011;4093;53.470;9.832;2024-01-25T14:58:25;20.93;;;5.23;;
8100;SDS011;4093;53.470;9.832;2024-01-25T15:00:55;18.60;;;4.97;;
8100;SDS011;4093;53.470;9.832;2024-01-25T15:03:22;14.67;;;4.53;;
8100;SDS011;4093;53.470;9.832;2024-01-25T15:05:50;18.27;;;5.53;;
8100;SDS011;4093;53.470;9.832;2024-01-25T15:08:18;16.40;;;4.70;;